createdAt,value
2022-09-07T00:01:45.994Z,15.50
2022-09-07T00:06:38.641Z,15.40
2022-09-07T00:11:31.095Z,15.30
2022-09-07T00:16:29.642Z,15.30
2022-09-07T00:21:22.117Z,15.30
2022-09-07T00:26:18.858Z,15.30
2022-09-07T00:31:19.168Z,15.20
2022-09-07T00:36:12.296Z,15.10
2022-09-07T00:41:06.618Z,15.20
2022-09-07T00:46:01.365Z,15.20
2022-09-07T00:51:03.411Z,15.20
2022-09-07T00:55:58.503Z,15.20
2022-09-07T01:00:52.170Z,15.10
2022-09-07T01:05:53.879Z,15.10
2022-09-07T01:10:47.875Z,14.90
2022-09-07T01:15:44.300Z,15.00
2022-09-07T01:20:44.805Z,14.90
2022-09-07T01:26:06.899Z,14.90
2022-09-07T01:31:23.153Z,14.90
2022-09-07T01:36:33.290Z,14.90
2022-09-07T01:41:47.075Z,14.90
2022-09-07T01:47:07.205Z,14.80
2022-09-07T01:52:06.547Z,14.80
2022-09-07T01:57:04.626Z,14.70
2022-09-07T02:02:06.143Z,14.80
2022-09-07T02:07:34.075Z,14.80
2022-09-07T02:12:37.142Z,14.80
2022-09-07T02:17:34.189Z,14.80
2022-09-07T02:22:30.270Z,14.80
2022-09-07T02:27:49.016Z,14.80
2022-09-07T02:32:41.661Z,14.70
2022-09-07T02:37:36.026Z,14.70
2022-09-07T02:42:32.304Z,14.80
2022-09-07T02:47:27.696Z,14.80
2022-09-07T02:52:51.443Z,14.80
2022-09-07T02:57:56.907Z,14.70
2022-09-07T03:03:23.317Z,14.70
2022-09-07T03:08:44.518Z,14.70
2022-09-07T03:13:36.853Z,14.60
2022-09-07T03:18:29.284Z,14.60
2022-09-07T03:23:21.959Z,14.60
2022-09-07T03:28:14.444Z,14.50
2022-09-07T03:33:07.329Z,14.50
2022-09-07T03:37:59.653Z,14.50
2022-09-07T03:42:51.965Z,14.40
2022-09-07T03:47:44.764Z,14.40
2022-09-07T03:52:37.858Z,14.40
2022-09-07T03:57:30.467Z,14.50
2022-09-07T04:02:22.915Z,14.50
2022-09-07T04:07:16.091Z,14.60
2022-09-07T04:12:08.652Z,14.50
2022-09-07T04:17:01.220Z,14.50
2022-09-07T04:21:53.776Z,14.60
2022-09-07T04:26:46.173Z,14.60
2022-09-07T04:31:38.869Z,14.80
2022-09-07T04:36:31.589Z,14.80
2022-09-07T04:41:24.243Z,14.80
2022-09-07T04:46:21.928Z,14.90
2022-09-07T04:51:14.960Z,15.00
2022-09-07T04:56:07.476Z,15.20
2022-09-07T05:01:55.847Z,15.50
2022-09-07T05:08:03.538Z,15.80
2022-09-07T05:14:10.760Z,16.10
2022-09-07T05:20:20.230Z,16.40
2022-09-07T05:26:27.188Z,16.70
2022-09-07T05:32:36.149Z,16.90
2022-09-07T05:38:43.040Z,17.10
2022-09-07T05:44:50.313Z,17.30
2022-09-07T05:50:57.667Z,17.70
2022-09-07T05:57:05.016Z,18.20
2022-09-07T06:03:12.213Z,18.80
2022-09-07T06:09:20.908Z,19.80
2022-09-07T06:15:29.268Z,22.60
2022-09-07T06:21:36.702Z,25.30
2022-09-07T06:27:43.838Z,24.50
2022-09-07T06:33:50.732Z,27.30
2022-09-07T06:39:58.215Z,30.80
2022-09-07T06:58:59.100Z,32.80
2022-09-07T07:04:10.184Z,33.60
2022-09-07T07:09:04.102Z,36.60
2022-09-07T07:13:56.719Z,37.80
2022-09-07T07:18:52.445Z,35.50
2022-09-07T07:23:45.462Z,34.10
2022-09-07T07:33:50.487Z,32.10
2022-09-07T07:39:01.313Z,33.50
2022-09-07T07:43:57.232Z,34.40
2022-09-07T07:48:49.718Z,34.40
2022-09-07T07:53:42.752Z,32.60
2022-09-07T07:58:37.159Z,32.50
2022-09-07T08:03:30.411Z,33.80
2022-09-07T08:08:25.540Z,35.60
2022-09-07T08:13:18.587Z,37.50
2022-09-07T08:18:16.458Z,36.50
2022-09-07T08:23:09.291Z,36.20
2022-09-07T08:28:02.443Z,35.00
2022-09-07T08:32:54.809Z,36.00
2022-09-07T08:37:47.248Z,33.40
2022-09-07T08:42:48.731Z,29.90
2022-09-07T08:47:50.724Z,28.40
2022-09-07T08:53:04.501Z,27.80
2022-09-07T08:58:52.920Z,27.70
2022-09-07T09:05:17.036Z,26.90
2022-09-07T09:11:26.211Z,26.60
2022-09-07T09:17:33.512Z,27.10
2022-09-07T09:23:40.449Z,28.00
2022-09-07T09:29:47.931Z,29.40
2022-09-07T09:35:56.110Z,30.70
2022-09-07T09:42:03.253Z,32.50
2022-09-07T09:48:10.395Z,33.50
2022-09-07T09:54:17.827Z,34.00
2022-09-07T10:00:29.836Z,32.50
2022-09-07T10:06:36.971Z,30.60
2022-09-07T10:12:44.630Z,29.70
2022-09-07T10:18:51.594Z,29.10
2022-09-07T10:24:58.919Z,28.80
2022-09-07T10:31:06.109Z,28.70
2022-09-07T10:37:14.967Z,28.00
2022-09-07T10:43:22.354Z,27.60
2022-09-07T10:49:30.202Z,27.20
2022-09-07T10:55:37.163Z,27.20
2022-09-07T11:01:08.322Z,26.90
2022-09-07T11:06:06.820Z,27.00
2022-09-07T11:11:11.108Z,27.50
2022-09-07T11:16:09.022Z,28.10
2022-09-07T11:21:05.189Z,28.80
2022-09-07T11:26:19.317Z,28.50
2022-09-07T11:31:41.291Z,28.70
2022-09-07T11:36:39.289Z,28.60
2022-09-07T11:41:38.691Z,28.50
2022-09-07T11:46:45.850Z,28.20
2022-09-07T11:51:53.546Z,28.30
2022-09-07T11:56:54.891Z,28.90
2022-09-07T12:01:59.322Z,29.30
2022-09-07T12:07:20.292Z,28.70
2022-09-07T12:12:45.250Z,28.60
2022-09-07T12:17:43.506Z,28.50
2022-09-07T12:22:35.922Z,28.60
2022-09-07T12:27:30.898Z,28.30
2022-09-07T12:33:18.917Z,27.80
2022-09-07T12:38:14.089Z,27.10
2022-09-07T12:43:18.346Z,26.60
2022-09-07T12:48:16.806Z,26.20
2022-09-07T12:53:23.902Z,25.90
2022-09-07T12:58:16.116Z,25.70
2022-09-07T13:08:56.982Z,25.50
2022-09-07T13:14:04.567Z,25.10
2022-09-07T13:19:02.581Z,24.90
2022-09-07T13:30:27.183Z,24.70
2022-09-07T13:36:35.303Z,24.80
2022-09-07T13:42:41.917Z,25.10
2022-09-07T13:48:48.930Z,25.70
2022-09-07T13:54:00.261Z,27.00
2022-09-07T13:59:48.695Z,27.40
2022-09-07T14:05:55.553Z,27.40
2022-09-07T14:12:02.916Z,27.40
2022-09-07T14:18:12.027Z,27.30
2022-09-07T14:24:19.249Z,27.20
2022-09-07T14:30:26.251Z,26.90
2022-09-07T14:36:49.759Z,26.60
2022-09-07T14:42:56.527Z,26.50
2022-09-07T14:49:03.512Z,26.60
2022-09-07T14:55:10.941Z,26.90
2022-09-07T15:07:47.409Z,26.50
2022-09-07T15:13:55.173Z,26.20
2022-09-07T15:20:03.431Z,25.90
2022-09-07T15:27:02.097Z,25.80
2022-09-07T15:31:45.972Z,25.70
2022-09-07T15:36:52.495Z,25.70
2022-09-07T15:41:46.377Z,25.90
2022-09-07T15:46:39.245Z,26.00
2022-09-07T15:57:48.448Z,26.50
2022-09-07T16:02:00.141Z,26.40
2022-09-07T16:06:53.062Z,26.10
2022-09-07T16:11:45.417Z,25.90
2022-09-07T16:21:50.036Z,25.60
2022-09-07T16:26:42.403Z,25.30
2022-09-07T16:31:35.646Z,25.10
2022-09-07T16:36:28.084Z,25.00
2022-09-07T16:41:28.584Z,24.70
2022-09-07T16:46:26.254Z,24.50
2022-09-07T16:51:21.424Z,24.40
2022-09-07T16:56:17.225Z,24.10
2022-09-07T17:01:11.899Z,23.80
2022-09-07T17:06:06.201Z,23.60
2022-09-07T17:11:07.190Z,23.40
2022-09-07T17:16:11.422Z,23.40
2022-09-07T17:21:06.368Z,23.30
2022-09-07T17:26:13.835Z,23.20
2022-09-07T17:31:08.839Z,23.00
2022-09-07T17:36:03.524Z,22.80
2022-09-07T17:40:56.631Z,22.60
2022-09-07T17:45:49.022Z,22.50
2022-09-07T17:50:42.495Z,22.40
2022-09-07T17:55:36.030Z,22.50
2022-09-07T18:00:28.946Z,22.50
2022-09-07T18:05:21.773Z,22.50
2022-09-07T18:10:14.657Z,22.40
2022-09-07T18:15:07.410Z,22.30
2022-09-07T18:19:59.717Z,22.30
2022-09-07T18:24:52.361Z,22.20
2022-09-07T18:29:44.738Z,22.20
2022-09-07T18:34:44.000Z,22.20
2022-09-07T18:39:51.422Z,22.10
2022-09-07T18:50:02.607Z,22.10
2022-09-07T18:55:00.197Z,22.00
2022-09-07T19:00:04.930Z,21.90
2022-09-07T19:10:23.535Z,21.90
2022-09-07T19:15:25.035Z,21.80
2022-09-07T19:20:22.962Z,21.70
2022-09-07T19:25:26.917Z,21.50
2022-09-07T19:30:28.872Z,21.40
2022-09-07T19:35:28.333Z,21.20
2022-09-07T19:40:27.022Z,21.10
2022-09-07T19:45:29.225Z,20.90
2022-09-07T19:50:26.032Z,20.80
2022-09-07T19:55:26.416Z,20.60
2022-09-07T20:00:25.862Z,20.50
2022-09-07T20:05:23.028Z,20.40
2022-09-07T20:10:16.432Z,20.30
2022-09-07T20:15:19.332Z,20.30
2022-09-07T20:20:19.583Z,20.30
2022-09-07T20:25:29.601Z,20.10
2022-09-07T20:30:56.238Z,20.00
2022-09-07T20:36:18.538Z,19.90
2022-09-07T20:41:28.148Z,19.80
2022-09-07T20:46:31.147Z,19.80
2022-09-07T20:51:25.191Z,19.60
2022-09-07T20:56:32.768Z,19.60
2022-09-07T21:01:25.385Z,19.50
2022-09-07T21:06:19.213Z,19.50
2022-09-07T21:11:14.142Z,19.30
2022-09-07T21:16:16.456Z,19.30
2022-09-07T21:21:19.823Z,19.20
2022-09-07T21:26:13.027Z,19.30
2022-09-07T21:31:07.326Z,19.10
2022-09-07T21:36:09.705Z,19.00
2022-09-07T21:41:13.394Z,19.00
2022-09-07T21:47:01.597Z,18.90
2022-09-07T21:53:08.788Z,18.90
2022-09-07T21:59:16.155Z,18.80
2022-09-07T22:05:23.125Z,18.70
2022-09-07T22:11:30.390Z,18.60
2022-09-07T22:17:37.418Z,18.60
2022-09-07T22:23:44.729Z,18.50
2022-09-07T22:29:51.908Z,18.50
2022-09-07T22:35:59.072Z,18.40
2022-09-07T22:42:05.931Z,18.30
2022-09-07T22:48:13.129Z,18.30
2022-09-07T22:54:20.021Z,18.20
2022-09-07T23:00:27.312Z,18.10
2022-09-07T23:06:34.588Z,18.10
2022-09-07T23:12:41.843Z,18.00
2022-09-07T23:18:48.823Z,17.90
2022-09-07T23:24:56.624Z,17.90
2022-09-07T23:31:04.096Z,17.90
2022-09-07T23:37:11.300Z,17.80
2022-09-07T23:43:18.358Z,17.80
2022-09-07T23:48:29.501Z,17.70
2022-09-07T23:53:22.633Z,17.70
2022-09-07T23:58:15.054Z,17.60
